sensor_id;sensor_type;location;lat;lon;timestamp;P1;durP1;ratioP1;P2;durP2;ratioP2
26488;SDS011;14169;43.684;10.484;2022-12-18T00:00:27;12.00;;;7.53;;
26488;SDS011;14169;43.684;10.484;2022-12-18T00:02:53;10.77;;;8.43;;
26488;SDS011;14169;43.684;10.484;2022-12-18T00:05:18;13.95;;;9.23;;
26488;SDS011;14169;43.684;10.484;2022-12-18T00:07:44;12.95;;;10.82;;
26488;SDS011;14169;43.684;10.484;2022-12-18T00:10:09;11.00;;;9.38;;
26488;SDS011;14169;43.684;10.484;2022-12-18T00:12:34;13.30;;;10.60;;
26488;SDS011;14169;43.684;10.484;2022-12-18T00:15:00;19.95;;;10.65;;
26488;SDS011;14169;43.684;10.484;2022-12-18T00:17:25;15.80;;;12.35;;
26488;SDS011;14169;43.684;10.484;2022-12-18T00:19:51;18.17;;;12.60;;
26488;SDS011;14169;43.684;10.484;2022-12-18T00:22:16;13.65;;;11.80;;
26488;SDS011;14169;43.684;10.484;2022-12-18T00:24:43;19.65;;;10.70;;
26488;SDS011;14169;43.684;10.484;2022-12-18T00:27:08;12.73;;;9.27;;
26488;SDS011;14169;43.684;10.484;2022-12-18T00:29:33;11.48;;;9.18;;
26488;SDS011;14169;43.684;10.484;2022-12-18T00:31:59;11.32;;;8.23;;
26488;SDS011;14169;43.684;10.484;2022-12-18T00:34:24;8.65;;;6.57;;
26488;SDS011;14169;43.684;10.484;2022-12-18T00:36:50;7.38;;;6.45;;
26488;SDS011;14169;43.684;10.484;2022-12-18T00:39:15;10.30;;;6.28;;
26488;SDS011;14169;43.684;10.484;2022-12-18T00:41:40;6.90;;;6.18;;
26488;SDS011;14169;43.684;10.484;2022-12-18T00:44:24;7.60;;;5.78;;
26488;SDS011;14169;43.684;10.484;2022-12-18T00:46:50;6.50;;;5.85;;
26488;SDS011;14169;43.684;10.484;2022-12-18T00:49:16;12.65;;;5.88;;
26488;SDS011;14169;43.684;10.484;2022-12-18T00:51:42;7.72;;;5.53;;
26488;SDS011;14169;43.684;10.484;2022-12-18T00:54:09;7.55;;;5.57;;
26488;SDS011;14169;43.684;10.484;2022-12-18T00:56:36;12.70;;;6.47;;
26488;SDS011;14169;43.684;10.484;2022-12-18T00:59:02;8.13;;;6.30;;
26488;SDS011;14169;43.684;10.484;2022-12-18T01:01:28;8.32;;;6.82;;
26488;SDS011;14169;43.684;10.484;2022-12-18T01:03:53;7.97;;;5.95;;
26488;SDS011;14169;43.684;10.484;2022-12-18T01:06:19;8.77;;;6.50;;
26488;SDS011;14169;43.684;10.484;2022-12-18T01:08:44;8.27;;;5.93;;
26488;SDS011;14169;43.684;10.484;2022-12-18T01:11:14;7.75;;;6.13;;
26488;SDS011;14169;43.684;10.484;2022-12-18T01:13:44;11.15;;;6.10;;
26488;SDS011;14169;43.684;10.484;2022-12-18T01:16:14;11.05;;;6.28;;
26488;SDS011;14169;43.684;10.484;2022-12-18T01:18:40;7.57;;;5.82;;
26488;SDS011;14169;43.684;10.484;2022-12-18T01:21:11;7.18;;;5.97;;
26488;SDS011;14169;43.684;10.484;2022-12-18T01:23:38;7.38;;;5.75;;
26488;SDS011;14169;43.684;10.484;2022-12-18T01:26:08;6.18;;;5.10;;
26488;SDS011;14169;43.684;10.484;2022-12-18T01:28:35;7.43;;;5.30;;
26488;SDS011;14169;43.684;10.484;2022-12-18T01:33:44;6.50;;;5.20;;
26488;SDS011;14169;43.684;10.484;2022-12-18T01:38:48;6.53;;;5.85;;
26488;SDS011;14169;43.684;10.484;2022-12-18T01:41:15;8.55;;;7.35;;
26488;SDS011;14169;43.684;10.484;2022-12-18T01:46:07;8.95;;;5.10;;
26488;SDS011;14169;43.684;10.484;2022-12-18T01:48:32;9.98;;;5.30;;
26488;SDS011;14169;43.684;10.484;2022-12-18T01:50:58;12.65;;;5.20;;
26488;SDS011;14169;43.684;10.484;2022-12-18T01:53:24;9.55;;;5.00;;
26488;SDS011;14169;43.684;10.484;2022-12-18T01:55:54;6.80;;;4.95;;
26488;SDS011;14169;43.684;10.484;2022-12-18T01:59:07;7.50;;;5.25;;
26488;SDS011;14169;43.684;10.484;2022-12-18T02:01:25;6.35;;;5.05;;
26488;SDS011;14169;43.684;10.484;2022-12-18T02:03:52;7.45;;;5.97;;
26488;SDS011;14169;43.684;10.484;2022-12-18T02:06:26;12.57;;;6.97;;
26488;SDS011;14169;43.684;10.484;2022-12-18T02:19:06;8.38;;;5.28;;
26488;SDS011;14169;43.684;10.484;2022-12-18T02:21:57;5.50;;;5.00;;
26488;SDS011;14169;43.684;10.484;2022-12-18T02:24:34;5.53;;;4.57;;
26488;SDS011;14169;43.684;10.484;2022-12-18T02:27:16;6.55;;;5.03;;
26488;SDS011;14169;43.684;10.484;2022-12-18T02:29:48;6.38;;;4.53;;
26488;SDS011;14169;43.684;10.484;2022-12-18T02:32:20;5.75;;;4.80;;
26488;SDS011;14169;43.684;10.484;2022-12-18T02:34:50;6.45;;;4.82;;
26488;SDS011;14169;43.684;10.484;2022-12-18T02:37:18;5.05;;;4.50;;
26488;SDS011;14169;43.684;10.484;2022-12-18T02:39:46;5.53;;;4.40;;
26488;SDS011;14169;43.684;10.484;2022-12-18T02:42:14;4.47;;;4.07;;
26488;SDS011;14169;43.684;10.484;2022-12-18T02:44:42;7.82;;;4.68;;
26488;SDS011;14169;43.684;10.484;2022-12-18T02:47:12;6.88;;;5.10;;
26488;SDS011;14169;43.684;10.484;2022-12-18T02:49:51;5.00;;;4.53;;
26488;SDS011;14169;43.684;10.484;2022-12-18T02:55:15;5.32;;;4.47;;
26488;SDS011;14169;43.684;10.484;2022-12-18T03:00:30;5.30;;;4.75;;
26488;SDS011;14169;43.684;10.484;2022-12-18T03:03:05;5.53;;;5.03;;
26488;SDS011;14169;43.684;10.484;2022-12-18T03:05:36;6.75;;;5.03;;
26488;SDS011;14169;43.684;10.484;2022-12-18T03:08:17;10.30;;;4.88;;
26488;SDS011;14169;43.684;10.484;2022-12-18T03:10:49;5.90;;;4.90;;
26488;SDS011;14169;43.684;10.484;2022-12-18T03:13:25;6.05;;;5.35;;
26488;SDS011;14169;43.684;10.484;2022-12-18T03:15:53;7.32;;;5.70;;
26488;SDS011;14169;43.684;10.484;2022-12-18T03:18:23;8.75;;;6.38;;
26488;SDS011;14169;43.684;10.484;2022-12-18T03:20:52;9.20;;;7.50;;
26488;SDS011;14169;43.684;10.484;2022-12-18T03:23:24;14.18;;;7.85;;
26488;SDS011;14169;43.684;10.484;2022-12-18T03:28:22;13.02;;;10.60;;
26488;SDS011;14169;43.684;10.484;2022-12-18T03:30:53;11.57;;;10.48;;
26488;SDS011;14169;43.684;10.484;2022-12-18T03:33:25;13.10;;;10.82;;
26488;SDS011;14169;43.684;10.484;2022-12-18T03:35:59;14.23;;;11.23;;
26488;SDS011;14169;43.684;10.484;2022-12-18T03:38:25;12.20;;;7.05;;
26488;SDS011;14169;43.684;10.484;2022-12-18T03:41:03;10.07;;;7.60;;
26488;SDS011;14169;43.684;10.484;2022-12-18T03:43:48;7.00;;;6.30;;
26488;SDS011;14169;43.684;10.484;2022-12-18T03:46:21;7.78;;;5.13;;
26488;SDS011;14169;43.684;10.484;2022-12-18T03:48:56;6.40;;;5.05;;
26488;SDS011;14169;43.684;10.484;2022-12-18T03:51:37;7.78;;;4.57;;
26488;SDS011;14169;43.684;10.484;2022-12-18T03:54:15;6.13;;;3.83;;
26488;SDS011;14169;43.684;10.484;2022-12-18T03:56:44;4.55;;;4.15;;
26488;SDS011;14169;43.684;10.484;2022-12-18T03:59:13;6.07;;;4.00;;
26488;SDS011;14169;43.684;10.484;2022-12-18T04:01:42;6.68;;;6.03;;
26488;SDS011;14169;43.684;10.484;2022-12-18T04:04:12;9.63;;;7.65;;
26488;SDS011;14169;43.684;10.484;2022-12-18T04:06:40;10.88;;;8.35;;
26488;SDS011;14169;43.684;10.484;2022-12-18T04:09:07;10.48;;;8.20;;
26488;SDS011;14169;43.684;10.484;2022-12-18T04:11:33;8.50;;;7.68;;
26488;SDS011;14169;43.684;10.484;2022-12-18T04:13:59;6.80;;;5.95;;
26488;SDS011;14169;43.684;10.484;2022-12-18T04:16:28;6.32;;;5.50;;
26488;SDS011;14169;43.684;10.484;2022-12-18T04:18:54;6.95;;;4.90;;
26488;SDS011;14169;43.684;10.484;2022-12-18T04:21:19;5.28;;;4.55;;
26488;SDS011;14169;43.684;10.484;2022-12-18T04:23:45;6.00;;;4.50;;
26488;SDS011;14169;43.684;10.484;2022-12-18T04:26:11;4.93;;;4.22;;
26488;SDS011;14169;43.684;10.484;2022-12-18T04:28:36;5.30;;;3.88;;
26488;SDS011;14169;43.684;10.484;2022-12-18T04:31:02;4.55;;;3.80;;
26488;SDS011;14169;43.684;10.484;2022-12-18T04:33:27;5.45;;;3.70;;
26488;SDS011;14169;43.684;10.484;2022-12-18T04:35:53;4.70;;;3.08;;
26488;SDS011;14169;43.684;10.484;2022-12-18T04:38:18;4.95;;;3.67;;
26488;SDS011;14169;43.684;10.484;2022-12-18T04:40:43;6.55;;;4.10;;
26488;SDS011;14169;43.684;10.484;2022-12-18T04:43:09;3.80;;;3.50;;
26488;SDS011;14169;43.684;10.484;2022-12-18T04:45:34;4.55;;;3.95;;
26488;SDS011;14169;43.684;10.484;2022-12-18T04:48:00;4.57;;;3.72;;
26488;SDS011;14169;43.684;10.484;2022-12-18T04:50:27;6.15;;;4.15;;
26488;SDS011;14169;43.684;10.484;2022-12-18T04:52:53;4.95;;;3.38;;
26488;SDS011;14169;43.684;10.484;2022-12-18T04:55:18;6.05;;;4.07;;
26488;SDS011;14169;43.684;10.484;2022-12-18T04:57:44;4.05;;;3.65;;
26488;SDS011;14169;43.684;10.484;2022-12-18T05:00:09;6.90;;;4.50;;
26488;SDS011;14169;43.684;10.484;2022-12-18T05:02:35;4.47;;;3.50;;
26488;SDS011;14169;43.684;10.484;2022-12-18T05:05:01;6.05;;;4.00;;
26488;SDS011;14169;43.684;10.484;2022-12-18T05:07:27;5.57;;;4.97;;
26488;SDS011;14169;43.684;10.484;2022-12-18T05:09:52;6.57;;;5.13;;
26488;SDS011;14169;43.684;10.484;2022-12-18T05:12:17;5.65;;;4.07;;
26488;SDS011;14169;43.684;10.484;2022-12-18T05:14:43;5.60;;;3.83;;
26488;SDS011;14169;43.684;10.484;2022-12-18T05:17:08;6.10;;;5.50;;
26488;SDS011;14169;43.684;10.484;2022-12-18T05:19:34;5.30;;;4.80;;
26488;SDS011;14169;43.684;10.484;2022-12-18T05:21:59;6.25;;;3.85;;
26488;SDS011;14169;43.684;10.484;2022-12-18T05:24:26;8.18;;;4.65;;
26488;SDS011;14169;43.684;10.484;2022-12-18T05:26:51;7.10;;;4.25;;
26488;SDS011;14169;43.684;10.484;2022-12-18T05:29:17;10.73;;;4.47;;
26488;SDS011;14169;43.684;10.484;2022-12-18T05:31:42;5.30;;;4.35;;
26488;SDS011;14169;43.684;10.484;2022-12-18T05:34:08;4.82;;;4.32;;
26488;SDS011;14169;43.684;10.484;2022-12-18T05:36:33;4.43;;;4.03;;
26488;SDS011;14169;43.684;10.484;2022-12-18T05:38:58;7.43;;;4.43;;
26488;SDS011;14169;43.684;10.484;2022-12-18T05:41:25;7.32;;;4.13;;
26488;SDS011;14169;43.684;10.484;2022-12-18T05:43:51;6.07;;;4.88;;
26488;SDS011;14169;43.684;10.484;2022-12-18T05:46:16;8.18;;;4.47;;
26488;SDS011;14169;43.684;10.484;2022-12-18T05:48:43;8.55;;;5.32;;
26488;SDS011;14169;43.684;10.484;2022-12-18T05:51:10;7.78;;;4.55;;
26488;SDS011;14169;43.684;10.484;2022-12-18T05:53:39;5.07;;;4.57;;
26488;SDS011;14169;43.684;10.484;2022-12-18T05:56:06;5.28;;;4.35;;
26488;SDS011;14169;43.684;10.484;2022-12-18T05:58:34;5.10;;;4.18;;
26488;SDS011;14169;43.684;10.484;2022-12-18T06:01:06;6.82;;;4.45;;
26488;SDS011;14169;43.684;10.484;2022-12-18T06:03:42;4.75;;;4.25;;
26488;SDS011;14169;43.684;10.484;2022-12-18T06:06:24;12.52;;;5.13;;
26488;SDS011;14169;43.684;10.484;2022-12-18T06:08:52;16.38;;;4.68;;
26488;SDS011;14169;43.684;10.484;2022-12-18T06:11:19;5.68;;;4.38;;
26488;SDS011;14169;43.684;10.484;2022-12-18T06:13:54;5.85;;;4.63;;
26488;SDS011;14169;43.684;10.484;2022-12-18T06:16:21;6.07;;;5.38;;
26488;SDS011;14169;43.684;10.484;2022-12-18T06:18:46;6.63;;;4.75;;
26488;SDS011;14169;43.684;10.484;2022-12-18T06:21:12;5.57;;;5.07;;
26488;SDS011;14169;43.684;10.484;2022-12-18T06:23:37;4.78;;;4.22;;
26488;SDS011;14169;43.684;10.484;2022-12-18T06:26:06;5.43;;;4.55;;
26488;SDS011;14169;43.684;10.484;2022-12-18T06:28:34;7.32;;;4.72;;
26488;SDS011;14169;43.684;10.484;2022-12-18T06:30:59;7.28;;;5.35;;
26488;SDS011;14169;43.684;10.484;2022-12-18T06:33:26;5.47;;;4.40;;
26488;SDS011;14169;43.684;10.484;2022-12-18T06:35:53;9.50;;;6.13;;
26488;SDS011;14169;43.684;10.484;2022-12-18T06:38:18;9.20;;;5.28;;
26488;SDS011;14169;43.684;10.484;2022-12-18T06:40:44;6.20;;;5.60;;
26488;SDS011;14169;43.684;10.484;2022-12-18T06:43:09;6.43;;;4.72;;
26488;SDS011;14169;43.684;10.484;2022-12-18T06:45:35;5.43;;;4.88;;
26488;SDS011;14169;43.684;10.484;2022-12-18T06:48:00;6.30;;;5.43;;
26488;SDS011;14169;43.684;10.484;2022-12-18T06:50:26;6.95;;;5.28;;
26488;SDS011;14169;43.684;10.484;2022-12-18T06:52:51;10.27;;;7.22;;
26488;SDS011;14169;43.684;10.484;2022-12-18T06:55:17;9.57;;;6.43;;
26488;SDS011;14169;43.684;10.484;2022-12-18T06:57:42;10.80;;;6.45;;
26488;SDS011;14169;43.684;10.484;2022-12-18T07:00:08;8.13;;;6.60;;
26488;SDS011;14169;43.684;10.484;2022-12-18T07:02:34;7.22;;;6.53;;
26488;SDS011;14169;43.684;10.484;2022-12-18T07:05:00;7.35;;;6.65;;
26488;SDS011;14169;43.684;10.484;2022-12-18T07:07:25;7.72;;;6.05;;
26488;SDS011;14169;43.684;10.484;2022-12-18T07:09:51;6.65;;;5.75;;
26488;SDS011;14169;43.684;10.484;2022-12-18T07:12:16;8.90;;;5.72;;
26488;SDS011;14169;43.684;10.484;2022-12-18T07:14:42;8.25;;;6.43;;
26488;SDS011;14169;43.684;10.484;2022-12-18T07:17:07;10.65;;;6.38;;
26488;SDS011;14169;43.684;10.484;2022-12-18T07:19:33;6.28;;;5.60;;
26488;SDS011;14169;43.684;10.484;2022-12-18T07:21:59;10.27;;;6.60;;
26488;SDS011;14169;43.684;10.484;2022-12-18T07:24:25;6.10;;;5.50;;
26488;SDS011;14169;43.684;10.484;2022-12-18T07:26:50;6.80;;;5.25;;
26488;SDS011;14169;43.684;10.484;2022-12-18T07:29:16;6.43;;;5.82;;
26488;SDS011;14169;43.684;10.484;2022-12-18T07:31:41;5.53;;;5.03;;
26488;SDS011;14169;43.684;10.484;2022-12-18T07:34:11;7.53;;;4.85;;
26488;SDS011;14169;43.684;10.484;2022-12-18T07:36:40;6.85;;;4.95;;
26488;SDS011;14169;43.684;10.484;2022-12-18T07:39:05;4.93;;;4.40;;
26488;SDS011;14169;43.684;10.484;2022-12-18T07:41:32;4.35;;;3.53;;
26488;SDS011;14169;43.684;10.484;2022-12-18T07:43:57;7.75;;;5.75;;
26488;SDS011;14169;43.684;10.484;2022-12-18T07:46:22;8.48;;;6.30;;
26488;SDS011;14169;43.684;10.484;2022-12-18T07:48:48;7.18;;;5.38;;
26488;SDS011;14169;43.684;10.484;2022-12-18T07:51:14;5.55;;;5.05;;
26488;SDS011;14169;43.684;10.484;2022-12-18T07:53:39;9.32;;;5.32;;
26488;SDS011;14169;43.684;10.484;2022-12-18T07:56:08;8.40;;;5.32;;
26488;SDS011;14169;43.684;10.484;2022-12-18T07:58:36;5.97;;;5.27;;
26488;SDS011;14169;43.684;10.484;2022-12-18T08:01:05;6.65;;;5.35;;
26488;SDS011;14169;43.684;10.484;2022-12-18T08:03:35;7.78;;;5.60;;
26488;SDS011;14169;43.684;10.484;2022-12-18T08:06:02;7.43;;;5.80;;
26488;SDS011;14169;43.684;10.484;2022-12-18T08:08:29;7.78;;;4.93;;
26488;SDS011;14169;43.684;10.484;2022-12-18T08:10:55;5.30;;;4.80;;
26488;SDS011;14169;43.684;10.484;2022-12-18T08:13:20;6.15;;;5.18;;
26488;SDS011;14169;43.684;10.484;2022-12-18T08:15:46;5.70;;;5.10;;
26488;SDS011;14169;43.684;10.484;2022-12-18T08:18:19;4.82;;;4.22;;
26488;SDS011;14169;43.684;10.484;2022-12-18T08:20:45;6.90;;;5.18;;
26488;SDS011;14169;43.684;10.484;2022-12-18T08:23:10;5.43;;;4.90;;
26488;SDS011;14169;43.684;10.484;2022-12-18T08:25:36;5.65;;;5.10;;
26488;SDS011;14169;43.684;10.484;2022-12-18T08:28:01;6.93;;;5.78;;
26488;SDS011;14169;43.684;10.484;2022-12-18T08:30:27;7.88;;;5.63;;
26488;SDS011;14169;43.684;10.484;2022-12-18T08:32:52;6.28;;;5.38;;
26488;SDS011;14169;43.684;10.484;2022-12-18T08:35:19;6.95;;;5.13;;
26488;SDS011;14169;43.684;10.484;2022-12-18T08:37:44;6.45;;;4.45;;
26488;SDS011;14169;43.684;10.484;2022-12-18T08:40:09;5.80;;;5.28;;
26488;SDS011;14169;43.684;10.484;2022-12-18T08:42:35;5.82;;;4.90;;
26488;SDS011;14169;43.684;10.484;2022-12-18T08:45:19;5.78;;;5.20;;
26488;SDS011;14169;43.684;10.484;2022-12-18T08:47:44;8.10;;;5.57;;
26488;SDS011;14169;43.684;10.484;2022-12-18T08:50:11;6.28;;;5.68;;
26488;SDS011;14169;43.684;10.484;2022-12-18T08:52:37;5.35;;;4.80;;
26488;SDS011;14169;43.684;10.484;2022-12-18T08:55:02;5.30;;;4.20;;
26488;SDS011;14169;43.684;10.484;2022-12-18T08:57:28;5.28;;;4.78;;
26488;SDS011;14169;43.684;10.484;2022-12-18T08:59:54;5.85;;;5.07;;
26488;SDS011;14169;43.684;10.484;2022-12-18T09:02:19;6.38;;;4.72;;
26488;SDS011;14169;43.684;10.484;2022-12-18T09:04:46;5.63;;;4.40;;
26488;SDS011;14169;43.684;10.484;2022-12-18T09:07:12;5.57;;;4.60;;
26488;SDS011;14169;43.684;10.484;2022-12-18T09:09:38;5.35;;;4.85;;
26488;SDS011;14169;43.684;10.484;2022-12-18T09:12:03;7.85;;;5.50;;
26488;SDS011;14169;43.684;10.484;2022-12-18T09:14:29;7.55;;;5.68;;
26488;SDS011;14169;43.684;10.484;2022-12-18T09:16:54;7.57;;;4.80;;
26488;SDS011;14169;43.684;10.484;2022-12-18T09:19:19;5.93;;;5.18;;
26488;SDS011;14169;43.684;10.484;2022-12-18T09:21:45;5.05;;;4.55;;
26488;SDS011;14169;43.684;10.484;2022-12-18T09:24:13;7.13;;;4.85;;
26488;SDS011;14169;43.684;10.484;2022-12-18T09:26:41;5.05;;;4.57;;
26488;SDS011;14169;43.684;10.484;2022-12-18T09:29:07;5.75;;;4.82;;
26488;SDS011;14169;43.684;10.484;2022-12-18T09:31:32;5.22;;;4.72;;
26488;SDS011;14169;43.684;10.484;2022-12-18T09:33:58;7.30;;;5.35;;
26488;SDS011;14169;43.684;10.484;2022-12-18T09:36:24;6.07;;;5.45;;
26488;SDS011;14169;43.684;10.484;2022-12-18T09:38:49;5.20;;;4.72;;
26488;SDS011;14169;43.684;10.484;2022-12-18T09:41:30;5.45;;;4.65;;
26488;SDS011;14169;43.684;10.484;2022-12-18T09:44:00;8.25;;;7.55;;
26488;SDS011;14169;43.684;10.484;2022-12-18T09:48:59;5.03;;;4.53;;
26488;SDS011;14169;43.684;10.484;2022-12-18T09:51:33;5.70;;;5.20;;
26488;SDS011;14169;43.684;10.484;2022-12-18T09:54:06;5.65;;;5.15;;
26488;SDS011;14169;43.684;10.484;2022-12-18T09:56:40;5.82;;;5.05;;
26488;SDS011;14169;43.684;10.484;2022-12-18T09:59:09;9.23;;;6.03;;
26488;SDS011;14169;43.684;10.484;2022-12-18T10:01:46;5.75;;;5.25;;
26488;SDS011;14169;43.684;10.484;2022-12-18T10:04:11;6.57;;;5.75;;
26488;SDS011;14169;43.684;10.484;2022-12-18T10:06:48;6.30;;;4.65;;
26488;SDS011;14169;43.684;10.484;2022-12-18T10:12:04;6.00;;;5.43;;
26488;SDS011;14169;43.684;10.484;2022-12-18T10:20:30;4.57;;;4.18;;
26488;SDS011;14169;43.684;10.484;2022-12-18T10:23:18;4.45;;;3.88;;
26488;SDS011;14169;43.684;10.484;2022-12-18T10:26:05;3.83;;;3.50;;
26488;SDS011;14169;43.684;10.484;2022-12-18T10:28:33;4.65;;;4.25;;
26488;SDS011;14169;43.684;10.484;2022-12-18T10:31:01;5.60;;;5.10;;
26488;SDS011;14169;43.684;10.484;2022-12-18T10:33:30;4.68;;;4.28;;
26488;SDS011;14169;43.684;10.484;2022-12-18T10:35:57;5.50;;;4.10;;
26488;SDS011;14169;43.684;10.484;2022-12-18T10:38:25;4.43;;;4.03;;
26488;SDS011;14169;43.684;10.484;2022-12-18T10:41:26;6.15;;;4.55;;
26488;SDS011;14169;43.684;10.484;2022-12-18T10:43:46;4.28;;;3.88;;
26488;SDS011;14169;43.684;10.484;2022-12-18T10:51:29;7.72;;;3.10;;
26488;SDS011;14169;43.684;10.484;2022-12-18T10:54:01;4.45;;;4.05;;
26488;SDS011;14169;43.684;10.484;2022-12-18T10:56:27;4.40;;;4.10;;
26488;SDS011;14169;43.684;10.484;2022-12-18T10:59:01;4.72;;;3.75;;
26488;SDS011;14169;43.684;10.484;2022-12-18T11:01:35;4.60;;;4.20;;
26488;SDS011;14169;43.684;10.484;2022-12-18T11:04:22;3.00;;;2.53;;
26488;SDS011;14169;43.684;10.484;2022-12-18T11:07:07;2.58;;;2.30;;
26488;SDS011;14169;43.684;10.484;2022-12-18T11:09:35;2.83;;;2.47;;
26488;SDS011;14169;43.684;10.484;2022-12-18T11:12:14;3.35;;;2.30;;
26488;SDS011;14169;43.684;10.484;2022-12-18T11:14:42;2.72;;;2.20;;
26488;SDS011;14169;43.684;10.484;2022-12-18T11:17:21;2.85;;;2.50;;
26488;SDS011;14169;43.684;10.484;2022-12-18T11:19:54;2.63;;;2.42;;
26488;SDS011;14169;43.684;10.484;2022-12-18T11:22:24;4.78;;;3.13;;
26488;SDS011;14169;43.684;10.484;2022-12-18T11:24:56;2.92;;;2.63;;
26488;SDS011;14169;43.684;10.484;2022-12-18T11:27:37;3.83;;;3.50;;
26488;SDS011;14169;43.684;10.484;2022-12-18T11:37:58;5.38;;;3.80;;
26488;SDS011;14169;43.684;10.484;2022-12-18T11:40:35;4.03;;;3.30;;
26488;SDS011;14169;43.684;10.484;2022-12-18T11:43:06;3.50;;;3.20;;
26488;SDS011;14169;43.684;10.484;2022-12-18T11:45:50;4.18;;;3.85;;
26488;SDS011;14169;43.684;10.484;2022-12-18T11:48:22;4.10;;;3.70;;
26488;SDS011;14169;43.684;10.484;2022-12-18T11:50:55;4.82;;;3.50;;
26488;SDS011;14169;43.684;10.484;2022-12-18T11:53:25;3.85;;;3.05;;
26488;SDS011;14169;43.684;10.484;2022-12-18T11:58:52;4.22;;;3.83;;
26488;SDS011;14169;43.684;10.484;2022-12-18T12:04:35;3.45;;;3.15;;
26488;SDS011;14169;43.684;10.484;2022-12-18T12:12:55;3.20;;;2.53;;
26488;SDS011;14169;43.684;10.484;2022-12-18T12:26:36;2.65;;;1.77;;
26488;SDS011;14169;43.684;10.484;2022-12-18T12:34:49;4.25;;;1.83;;
26488;SDS011;14169;43.684;10.484;2022-12-18T12:39:55;3.92;;;2.70;;
26488;SDS011;14169;43.684;10.484;2022-12-18T12:45:09;3.40;;;1.95;;
26488;SDS011;14169;43.684;10.484;2022-12-18T12:47:43;1.90;;;1.50;;
26488;SDS011;14169;43.684;10.484;2022-12-18T12:50:14;2.22;;;1.98;;
26488;SDS011;14169;43.684;10.484;2022-12-18T12:52:44;2.25;;;2.05;;
26488;SDS011;14169;43.684;10.484;2022-12-18T12:55:22;2.45;;;2.03;;
26488;SDS011;14169;43.684;10.484;2022-12-18T13:03:20;2.25;;;1.75;;
26488;SDS011;14169;43.684;10.484;2022-12-18T13:05:50;2.47;;;1.65;;
26488;SDS011;14169;43.684;10.484;2022-12-18T13:08:24;4.03;;;2.22;;
26488;SDS011;14169;43.684;10.484;2022-12-18T13:10:51;2.20;;;1.90;;
26488;SDS011;14169;43.684;10.484;2022-12-18T13:13:59;2.60;;;1.98;;
26488;SDS011;14169;43.684;10.484;2022-12-18T13:16:24;3.88;;;2.72;;
26488;SDS011;14169;43.684;10.484;2022-12-18T13:18:54;2.42;;;1.65;;
26488;SDS011;14169;43.684;10.484;2022-12-18T13:21:30;3.05;;;2.53;;
26488;SDS011;14169;43.684;10.484;2022-12-18T13:24:14;3.47;;;3.03;;
26488;SDS011;14169;43.684;10.484;2022-12-18T13:26:47;3.83;;;3.13;;
26488;SDS011;14169;43.684;10.484;2022-12-18T13:29:14;3.75;;;2.75;;
26488;SDS011;14169;43.684;10.484;2022-12-18T13:32:24;3.15;;;2.85;;
26488;SDS011;14169;43.684;10.484;2022-12-18T13:37:53;3.80;;;2.78;;
26488;SDS011;14169;43.684;10.484;2022-12-18T13:43:20;2.88;;;2.63;;
26488;SDS011;14169;43.684;10.484;2022-12-18T13:48:31;3.20;;;2.78;;
26488;SDS011;14169;43.684;10.484;2022-12-18T13:53:35;2.78;;;2.25;;
26488;SDS011;14169;43.684;10.484;2022-12-18T13:56:07;3.72;;;2.70;;
26488;SDS011;14169;43.684;10.484;2022-12-18T13:58:32;3.15;;;2.53;;
26488;SDS011;14169;43.684;10.484;2022-12-18T14:00:58;2.58;;;1.95;;
26488;SDS011;14169;43.684;10.484;2022-12-18T14:03:26;4.55;;;3.63;;
26488;SDS011;14169;43.684;10.484;2022-12-18T14:05:58;4.32;;;2.83;;
26488;SDS011;14169;43.684;10.484;2022-12-18T14:08:30;2.90;;;2.40;;
26488;SDS011;14169;43.684;10.484;2022-12-18T14:13:33;6.25;;;4.40;;
26488;SDS011;14169;43.684;10.484;2022-12-18T14:16:03;4.78;;;3.25;;
26488;SDS011;14169;43.684;10.484;2022-12-18T14:21:21;4.28;;;2.60;;
26488;SDS011;14169;43.684;10.484;2022-12-18T14:24:02;4.05;;;2.30;;
26488;SDS011;14169;43.684;10.484;2022-12-18T14:26:33;3.38;;;3.08;;
26488;SDS011;14169;43.684;10.484;2022-12-18T14:29:00;5.45;;;3.92;;
26488;SDS011;14169;43.684;10.484;2022-12-18T14:31:42;3.08;;;2.75;;
26488;SDS011;14169;43.684;10.484;2022-12-18T14:34:14;3.55;;;3.25;;
26488;SDS011;14169;43.684;10.484;2022-12-18T14:36:41;4.18;;;2.70;;
26488;SDS011;14169;43.684;10.484;2022-12-18T14:39:17;3.38;;;2.65;;
26488;SDS011;14169;43.684;10.484;2022-12-18T14:41:43;3.45;;;3.15;;
26488;SDS011;14169;43.684;10.484;2022-12-18T14:44:10;4.18;;;3.30;;
26488;SDS011;14169;43.684;10.484;2022-12-18T14:49:04;3.88;;;3.35;;
26488;SDS011;14169;43.684;10.484;2022-12-18T14:51:51;4.68;;;3.08;;
26488;SDS011;14169;43.684;10.484;2022-12-18T14:54:19;4.40;;;3.30;;
26488;SDS011;14169;43.684;10.484;2022-12-18T14:56:48;5.20;;;2.90;;
26488;SDS011;14169;43.684;10.484;2022-12-18T14:59:17;4.10;;;2.67;;
26488;SDS011;14169;43.684;10.484;2022-12-18T15:04:45;4.85;;;3.20;;
26488;SDS011;14169;43.684;10.484;2022-12-18T15:10:00;4.30;;;3.90;;
26488;SDS011;14169;43.684;10.484;2022-12-18T15:12:37;4.18;;;3.58;;
26488;SDS011;14169;43.684;10.484;2022-12-18T15:15:41;4.05;;;3.72;;
26488;SDS011;14169;43.684;10.484;2022-12-18T15:20:33;6.70;;;4.85;;
26488;SDS011;14169;43.684;10.484;2022-12-18T15:23:13;5.97;;;5.47;;
26488;SDS011;14169;43.684;10.484;2022-12-18T15:25:39;5.82;;;4.68;;
26488;SDS011;14169;43.684;10.484;2022-12-18T15:28:15;5.38;;;4.88;;
26488;SDS011;14169;43.684;10.484;2022-12-18T15:36:20;7.45;;;6.75;;
26488;SDS011;14169;43.684;10.484;2022-12-18T15:38:51;7.57;;;6.78;;
26488;SDS011;14169;43.684;10.484;2022-12-18T15:41:19;6.10;;;5.13;;
26488;SDS011;14169;43.684;10.484;2022-12-18T15:43:46;6.53;;;4.53;;
26488;SDS011;14169;43.684;10.484;2022-12-18T15:46:17;7.40;;;6.03;;
26488;SDS011;14169;43.684;10.484;2022-12-18T15:48:48;7.30;;;6.57;;
26488;SDS011;14169;43.684;10.484;2022-12-18T15:53:55;8.05;;;7.25;;
26488;SDS011;14169;43.684;10.484;2022-12-18T15:56:23;6.68;;;5.70;;
26488;SDS011;14169;43.684;10.484;2022-12-18T15:59:11;11.38;;;10.18;;
26488;SDS011;14169;43.684;10.484;2022-12-18T16:01:40;14.27;;;12.87;;
26488;SDS011;14169;43.684;10.484;2022-12-18T16:04:06;8.43;;;7.72;;
26488;SDS011;14169;43.684;10.484;2022-12-18T16:06:32;17.52;;;15.65;;
26488;SDS011;14169;43.684;10.484;2022-12-18T16:08:57;14.65;;;13.32;;
26488;SDS011;14169;43.684;10.484;2022-12-18T16:11:24;17.80;;;11.50;;
26488;SDS011;14169;43.684;10.484;2022-12-18T16:14:25;14.17;;;12.73;;
26488;SDS011;14169;43.684;10.484;2022-12-18T16:17:00;11.30;;;10.30;;
26488;SDS011;14169;43.684;10.484;2022-12-18T16:19:27;11.18;;;10.07;;
26488;SDS011;14169;43.684;10.484;2022-12-18T16:21:54;10.73;;;9.73;;
26488;SDS011;14169;43.684;10.484;2022-12-18T16:24:22;12.02;;;11.00;;
26488;SDS011;14169;43.684;10.484;2022-12-18T16:26:49;11.98;;;10.82;;
26488;SDS011;14169;43.684;10.484;2022-12-18T16:29:16;11.98;;;10.77;;
26488;SDS011;14169;43.684;10.484;2022-12-18T16:31:42;12.85;;;10.32;;
26488;SDS011;14169;43.684;10.484;2022-12-18T16:36:51;10.00;;;9.10;;
26488;SDS011;14169;43.684;10.484;2022-12-18T16:39:19;12.20;;;10.85;;
26488;SDS011;14169;43.684;10.484;2022-12-18T16:41:45;13.68;;;11.88;;
26488;SDS011;14169;43.684;10.484;2022-12-18T16:44:11;14.68;;;13.30;;
26488;SDS011;14169;43.684;10.484;2022-12-18T16:46:37;19.27;;;17.38;;
26488;SDS011;14169;43.684;10.484;2022-12-18T16:49:03;21.40;;;19.23;;
26488;SDS011;14169;43.684;10.484;2022-12-18T16:51:29;18.65;;;16.65;;